SKBQ/BAQ METAR and TAF weather

Enter ICAO airport designator
Station Type Date Time Source
SKBQ METAR 2020/06/03 16:00 UTC NOAA

SKBQ 031600Z 10005KT 010V100 9999 FEW018 31/23 A2988 NOSIG


Station Type Date Time Source
SKBQ Decoded METAR 2020/06/03 16:00 UTC NOAA

Barranquilla / Ernestocortissoz, Colombia (SKBQ) 10-53N 074-47W 30M
Jun 03, 2020 - 12:00 PM EDT / 2020.06.03 1600 UTC
Wind: from the E (100 degrees) at 6 MPH (5 KT) (direction variable):0
Visibility: greater than 7 mile(s):0
Sky conditions: mostly clear
Temperature: 87 F (31 C)
Heat index: 93.9 F (34.4 C):1
Dew Point: 73 F (23 C)
Relative Humidity: 62%
Pressure (altimeter): 29.88 in. Hg (1011 hPa)
ob: SKBQ 031600Z 10005KT 010V100 9999 FEW018 31/23 A2988 NOSIG
cycle: 16

Station Type Date Time Source
SKBQ TAF 2020/06/03 18:45 UTC NOAA

TAF SKBQ 031630Z 0318/0418 09003KT 9999 FEW015
TEMPO 0319/0322 TSRA FEW012CB SCT070
BECMG 0320/0323 01010KT
BECMG 0405/0407 VRB03KT
TEMPO 0407/0409 DZRA FEW015CB
TEMPO 0410/0413 4000 BR BKN010 TX34/0417Z TN24/0409Z

Example: see airport list